Madawaska, ME (04756)

5:55 AM EST on February 08, 2016 (GMT -0500)
W1AYX | | Change Station
CLOSE
Current Station
Personal Weather Station
Location: Madawaska, ME
Elevation: 545 ft
Nearby Weather Stations

Elev 545 ft 47.35 °N, 68.28 °W | Updated 9 seconds ago

Clear
Clear
-4.0 °F
Feels Like -13 °F
N
4.0
Wind Variable Wind from WSW
Gusts 4.9 mph

Today
High -- | Low -- °F
--% Chance of Precip.
Yesterday
High -- | Low -- °F
Precip. -- in
Pressure 30.28 in
Visibility 10.0 miles
Clouds Clear
Windchill -13 °F
Dew Point -17 °F
Humidity 54%
Rainfall 0.00 in
Snow Depth Not available.
6:50 AM 4:45 PM
Waning Crescent, 0% visible
METAR KFVE 080953Z AUTO 34004KT 10SM CLR M19/M22 A3021 RMK AO2 SNB0856E13 SLP252 P0000 T11941217
Pressure 30.28 in
Visibility 10.0 miles
Clouds Clear
Windchill -13 °F
Dew Point -17 °F
Humidity 54%
Rainfall 0.00 in
Snow Depth Not available.
6:50 AM 4:45 PM
Waning Crescent, 0% visible
METAR KFVE 080953Z AUTO 34004KT 10SM CLR M19/M22 A3021 RMK AO2 SNB0856E13 SLP252 P0000 T11941217

10-Day Weather Forecast

Almanac

Astronomy

Feb. 08, 2016 Rise Set
Actual Time
Civil Twilight
Nautical Twilight
Astronomical Twilight
Moon
Length of Visible Light
Length of Day
Tomorrow will be .
, % of the Moon is Illuminated

Today's Extremes

State Highs State Lows

Community

WunderPhotos

Upload Photos

1,891,420 photos uploaded!

WunderBlog® & News

Nearby

Air Quality

  Air Quality AQ Index Pollutant
Not available.

Snow Depth

Station Depth Elevation

Earthquake Activity

City Distance Mag. Time & Date
Minimum magnitude displayed is 2.5.

Coastal Water Temperatures

Place Temperature

Stations

Nearby Weather Stations

Station Location Temp. Windchill Dew Point Humidity Wind Precip. Elev Updated Type
                   

Watches & Warnings

There are currently no watches in effect.